Time;durP1;ratioP1;P1;durP2;ratioP2;P2;SDS_P1;SDS_P2;PMS_P1;PMS_P2;Temp;Humidity;BMP_temperature;BMP_pressure;BME280_temperature;BME280_humidity;BME280_pressure;Samples;Min_cycle;Max_cycle;Signal;HPM_P1;HPM_P2
2023/12/17 00:01:59;;;;;;;12.13;6.40;;;0.90;62.80;;;;;;4973188;28;46762;-70
2023/12/17 00:04:25;;;;;;;11.20;6.10;;;1.00;62.90;;;;;;4976895;28;46671;-70
2023/12/17 00:06:50;;;;;;;13.50;6.40;;;1.00;62.90;;;;;;4971171;28;46476;-70
2023/12/17 00:09:16;;;;;;;12.23;6.80;;;0.90;63.10;;;;;;4980363;28;46448;-71
2023/12/17 00:11:42;;;;;;;10.70;6.23;;;0.90;63.10;;;;;;4977504;28;46399;-69
2023/12/17 00:14:13;;;;;;;10.87;6.90;;;1.10;63.30;;;;;;4973012;28;46428;-65
2023/12/17 00:16:40;;;;;;;10.55;6.13;;;0.90;63.40;;;;;;4975762;28;46388;-68
2023/12/17 00:19:05;;;;;;;13.57;6.50;;;0.90;63.40;;;;;;4971184;28;47227;-68
2023/12/17 00:21:31;;;;;;;10.50;6.57;;;0.90;63.50;;;;;;4974507;28;46425;-66
2023/12/17 00:23:57;;;;;;;10.02;6.85;;;0.90;63.70;;;;;;4976095;28;46756;-67
2023/12/17 00:26:22;;;;;;;13.67;7.13;;;0.80;63.60;;;;;;4978974;28;46353;-66
2023/12/17 00:28:48;;;;;;;11.30;6.80;;;0.80;63.70;;;;;;4977713;28;46479;-66
2023/12/17 00:31:14;;;;;;;11.43;6.63;;;0.80;63.80;;;;;;4979824;28;46463;-67
2023/12/17 00:33:39;;;;;;;11.47;6.90;;;0.70;64.10;;;;;;4975053;28;46477;-67
2023/12/17 00:36:05;;;;;;;12.03;7.03;;;0.70;64.20;;;;;;4979549;28;46601;-67
2023/12/17 00:38:31;;;;;;;10.07;7.20;;;0.70;64.30;;;;;;4968983;28;46998;-67
2023/12/17 00:40:57;;;;;;;16.10;8.77;;;0.70;64.40;;;;;;4980208;28;46405;-65
2023/12/17 00:43:22;;;;;;;14.50;8.30;;;0.70;64.40;;;;;;4976447;28;46377;-65
2023/12/17 00:45:48;;;;;;;13.93;9.03;;;0.60;64.70;;;;;;4973385;28;46405;-67
2023/12/17 00:48:13;;;;;;;13.33;8.27;;;0.50;65.10;;;;;;4975716;28;47545;-67
2023/12/17 00:50:39;;;;;;;18.20;10.00;;;0.50;65.30;;;;;;4984950;28;45755;-66
2023/12/17 00:53:04;;;;;;;13.83;8.03;;;0.50;65.70;;;;;;4975553;28;46437;-66
2023/12/17 00:55:30;;;;;;;20.83;12.17;;;0.40;65.80;;;;;;4974889;28;46463;-66
2023/12/17 00:57:56;;;;;;;20.50;10.70;;;0.40;65.80;;;;;;4971717;28;46625;-67
2023/12/17 01:00:22;;;;;;;14.77;7.90;;;0.30;65.80;;;;;;4974936;28;46476;-67
2023/12/17 01:02:47;;;;;;;17.60;8.13;;;0.30;66.00;;;;;;4977654;28;46464;-66
2023/12/17 01:05:13;;;;;;;15.90;7.73;;;0.30;65.90;;;;;;4972261;28;46520;-66
2023/12/17 01:07:39;;;;;;;10.77;7.00;;;0.30;65.90;;;;;;4973388;28;46917;-67
2023/12/17 01:10:05;;;;;;;12.33;7.33;;;0.30;65.80;;;;;;4970323;28;46428;-67
2023/12/17 01:12:30;;;;;;;12.43;7.72;;;0.30;65.70;;;;;;4972118;28;46433;-66
2023/12/17 01:14:56;;;;;;;12.67;8.00;;;0.40;65.60;;;;;;4974466;28;46028;-67
2023/12/17 01:17:21;;;;;;;12.70;7.70;;;0.40;65.50;;;;;;4972774;28;47060;-68
2023/12/17 01:19:47;;;;;;;16.00;9.20;;;0.30;65.30;;;;;;4974519;28;46333;-67
2023/12/17 01:22:12;;;;;;;15.40;9.00;;;0.30;65.40;;;;;;4979361;28;46381;-64
2023/12/17 01:24:39;;;;;;;16.47;8.77;;;0.30;65.50;;;;;;4978196;28;46334;-66
2023/12/17 01:27:05;;;;;;;13.27;7.60;;;0.30;65.50;;;;;;4977316;28;46429;-67
2023/12/17 01:29:30;;;;;;;14.60;7.67;;;0.30;65.40;;;;;;4972086;28;46517;-67
2023/12/17 01:31:57;;;;;;;13.53;7.40;;;0.30;65.20;;;;;;4971018;28;46114;-67
2023/12/17 01:34:23;;;;;;;13.27;7.43;;;0.30;65.20;;;;;;4973324;28;46448;-66
2023/12/17 01:36:49;;;;;;;13.60;8.02;;;0.30;65.10;;;;;;4972736;28;46639;-66
2023/12/17 01:39:16;;;;;;;11.17;6.60;;;0.30;65.10;;;;;;4974084;28;46329;-67
2023/12/17 01:41:42;;;;;;;12.48;7.18;;;0.30;65.10;;;;;;4975864;28;46565;-67
2023/12/17 01:44:07;;;;;;;11.68;7.78;;;0.30;65.10;;;;;;4976243;28;46465;-66
2023/12/17 01:46:33;;;;;;;14.53;7.70;;;0.30;65.00;;;;;;4975492;28;46393;-67
2023/12/17 01:48:59;;;;;;;17.00;8.23;;;0.30;64.70;;;;;;4973305;28;46688;-67
2023/12/17 01:51:26;;;;;;;9.87;6.57;;;0.30;64.70;;;;;;4970264;28;46661;-67
2023/12/17 01:53:52;;;;;;;9.85;6.75;;;0.30;64.70;;;;;;4973567;28;46478;-67
2023/12/17 01:56:18;;;;;;;10.82;6.75;;;0.30;64.70;;;;;;4973061;28;47136;-67
2023/12/17 01:58:44;;;;;;;12.27;7.23;;;0.30;64.80;;;;;;4977274;28;45940;-67
2023/12/17 02:01:10;;;;;;;11.55;7.18;;;0.30;66.10;;;;;;4973736;28;46206;-67
2023/12/17 02:03:35;;;;;;;12.50;6.82;;;0.30;65.10;;;;;;4973591;28;45881;-67
2023/12/17 02:06:01;;;;;;;12.00;6.87;;;0.20;65.00;;;;;;4975891;28;46874;-68
2023/12/17 02:08:27;;;;;;;9.37;6.40;;;0.20;65.20;;;;;;4975052;28;46397;-68
2023/12/17 02:10:53;;;;;;;10.00;5.53;;;0.20;65.30;;;;;;4973496;28;46432;-67
2023/12/17 02:13:19;;;;;;;10.52;6.57;;;0.10;65.30;;;;;;4976884;28;45774;-67
2023/12/17 02:15:45;;;;;;;9.93;6.30;;;0.10;65.50;;;;;;4976831;28;46314;-66
2023/12/17 02:18:10;;;;;;;12.30;6.93;;;0.10;66.90;;;;;;4969619;28;46400;-66
2023/12/17 02:20:36;;;;;;;11.67;6.60;;;0.00;65.60;;;;;;4974820;28;46433;-67
2023/12/17 02:23:03;;;;;;;11.07;6.20;;;0.00;65.80;;;;;;4974186;28;45985;-67
2023/12/17 02:25:28;;;;;;;12.05;6.50;;;-0.10;65.70;;;;;;4973202;28;46489;-67
2023/12/17 02:27:58;;;;;;;12.00;6.30;;;-0.10;65.80;;;;;;4972029;28;46400;-68
2023/12/17 02:30:24;;;;;;;11.68;7.00;;;-0.10;65.70;;;;;;4969608;28;46381;-67
2023/12/17 02:32:51;;;;;;;12.80;6.82;;;-0.10;65.80;;;;;;4975744;28;46349;-67
2023/12/17 02:35:17;;;;;;;11.05;7.05;;;-0.10;65.80;;;;;;4969227;28;46569;-66
2023/12/17 02:37:42;;;;;;;13.23;7.20;;;-0.10;65.80;;;;;;4973446;28;46674;-67
2023/12/17 02:40:08;;;;;;;12.77;6.63;;;-0.10;66.00;;;;;;4972338;28;46445;-67
2023/12/17 02:42:34;;;;;;;15.32;7.07;;;-0.20;66.00;;;;;;4976084;28;46539;-66
2023/12/17 02:44:59;;;;;;;11.73;6.60;;;-0.20;65.90;;;;;;4972356;28;46543;-67
2023/12/17 02:47:25;;;;;;;10.47;6.77;;;-0.30;65.90;;;;;;4976704;28;45942;-64
2023/12/17 02:49:50;;;;;;;11.97;6.80;;;-0.30;65.90;;;;;;4970337;28;46446;-66
2023/12/17 02:52:16;;;;;;;9.90;6.20;;;-0.30;66.00;;;;;;4969480;28;45960;-67
2023/12/17 02:54:43;;;;;;;9.90;6.87;;;-0.30;65.90;;;;;;4972980;28;47213;-67
2023/12/17 02:57:08;;;;;;;13.93;6.90;;;-0.30;65.90;;;;;;4972615;28;46450;-67
2023/12/17 02:59:34;;;;;;;12.57;6.13;;;-0.10;65.90;;;;;;4971118;28;46387;-66
2023/12/17 03:01:59;;;;;;;12.00;7.30;;;-0.30;65.80;;;;;;4972161;28;46445;-67
2023/12/17 03:04:25;;;;;;;9.50;5.90;;;-0.30;65.80;;;;;;4974316;28;47181;-67
2023/12/17 03:06:50;;;;;;;9.57;6.57;;;-0.40;65.70;;;;;;4968230;28;46507;-66
2023/12/17 03:09:16;;;;;;;10.00;6.37;;;-0.40;65.90;;;;;;4972525;28;46426;-66
2023/12/17 03:11:42;;;;;;;11.57;6.90;;;-0.40;65.80;;;;;;4968557;28;46450;-67
2023/12/17 03:14:07;;;;;;;9.70;6.33;;;-0.20;66.00;;;;;;4970955;28;46399;-67
2023/12/17 03:16:33;;;;;;;12.77;6.77;;;-0.40;67.00;;;;;;4969506;28;46756;-66
2023/12/17 03:18:59;;;;;;;11.67;6.93;;;-0.40;65.80;;;;;;4966774;28;46414;-66
2023/12/17 03:21:26;;;;;;;12.40;6.63;;;-0.30;65.80;;;;;;4973382;28;46757;-67
2023/12/17 03:23:53;;;;;;;14.18;6.40;;;-0.30;65.70;;;;;;4970914;28;48056;-66
2023/12/17 03:26:19;;;;;;;11.65;6.68;;;-0.30;65.60;;;;;;4967983;28;46356;-66
2023/12/17 03:28:44;;;;;;;11.93;6.60;;;-0.30;65.50;;;;;;4973226;28;46345;-66
2023/12/17 03:31:14;;;;;;;12.53;6.33;;;-0.30;65.70;;;;;;4970755;28;46611;-66
2023/12/17 03:33:44;;;;;;;12.65;6.53;;;-0.30;65.50;;;;;;4967091;28;46456;-65
2023/12/17 03:36:14;;;;;;;10.68;6.03;;;-0.30;65.50;;;;;;4968295;28;46537;-68
2023/12/17 03:38:40;;;;;;;12.35;7.22;;;-0.30;65.50;;;;;;4971125;28;46504;-67
2023/12/17 03:41:06;;;;;;;10.98;6.47;;;-0.30;65.60;;;;;;4971232;28;46679;-68
2023/12/17 03:43:31;;;;;;;9.70;5.83;;;-0.40;65.50;;;;;;4968500;28;46373;-68
2023/12/17 03:45:57;;;;;;;13.30;6.53;;;-0.40;65.50;;;;;;4972803;28;46437;-66
2023/12/17 03:48:23;;;;;;;11.03;5.93;;;-0.40;66.80;;;;;;4969287;28;46438;-67
2023/12/17 03:50:48;;;;;;;9.90;6.00;;;-0.40;65.60;;;;;;4971843;28;46374;-66
2023/12/17 03:53:14;;;;;;;8.20;5.70;;;-0.40;65.60;;;;;;4967045;28;46388;-66
2023/12/17 03:55:39;;;;;;;8.87;6.10;;;-0.30;65.50;;;;;;4970897;28;46494;-67
2023/12/17 03:58:05;;;;;;;8.50;5.43;;;-0.40;65.40;;;;;;4973071;28;46413;-66
2023/12/17 04:00:30;;;;;;;9.37;5.97;;;-0.40;65.50;;;;;;4971829;28;45817;-67
2023/12/17 04:02:56;;;;;;;9.83;5.83;;;-0.40;65.50;;;;;;4969684;28;46452;-67
2023/12/17 04:05:25;;;;;;;11.93;6.97;;;-0.40;65.50;;;;;;4971791;28;46358;-67
2023/12/17 04:07:50;;;;;;;13.68;6.45;;;-0.30;65.60;;;;;;4970145;28;46227;-67
2023/12/17 04:10:16;;;;;;;7.90;5.80;;;-0.40;65.60;;;;;;4971107;28;46404;-67
2023/12/17 04:12:41;;;;;;;12.00;6.80;;;-0.40;65.50;;;;;;4971440;28;47190;-67
2023/12/17 04:15:07;;;;;;;13.07;6.37;;;-0.40;65.30;;;;;;4969939;28;46694;-66
2023/12/17 04:17:33;;;;;;;8.73;6.10;;;-0.30;65.30;;;;;;4975748;28;46411;-67
2023/12/17 04:19:58;;;;;;;8.77;5.43;;;-0.30;65.20;;;;;;4969440;28;46680;-66
2023/12/17 04:22:24;;;;;;;9.60;6.10;;;-0.40;65.20;;;;;;4976679;28;46494;-66
2023/12/17 04:24:50;;;;;;;9.27;5.57;;;-0.40;65.20;;;;;;4968766;28;46426;-66
2023/12/17 04:27:15;;;;;;;10.63;6.07;;;-0.30;65.40;;;;;;4969541;28;46148;-67
2023/12/17 04:29:41;;;;;;;8.73;5.33;;;-0.30;65.40;;;;;;4970204;28;46650;-67
2023/12/17 04:32:07;;;;;;;8.23;4.70;;;-0.40;65.30;;;;;;4971540;28;46509;-68
2023/12/17 04:34:33;;;;;;;10.15;6.53;;;-0.40;65.30;;;;;;4969276;28;46393;-67
2023/12/17 04:36:59;;;;;;;9.60;5.63;;;-0.40;65.40;;;;;;4971148;28;46496;-65
2023/12/17 04:39:26;;;;;;;12.50;6.45;;;-0.40;65.50;;;;;;4972486;28;45974;-65
2023/12/17 04:41:52;;;;;;;10.05;5.65;;;-0.40;65.60;;;;;;4993693;23;46374;-67
2023/12/17 04:44:17;;;;;;;9.87;5.07;;;-0.50;65.60;;;;;;4981843;28;46435;-66
2023/12/17 04:46:43;;;;;;;8.17;5.20;;;-0.50;65.60;;;;;;4984630;28;46470;-67
2023/12/17 04:49:09;;;;;;;8.95;5.30;;;-0.50;65.80;;;;;;4984985;28;46415;-66
2023/12/17 04:51:34;;;;;;;9.60;5.40;;;-0.60;65.60;;;;;;4983653;28;46375;-66
2023/12/17 04:54:00;;;;;;;8.57;4.97;;;-0.50;65.80;;;;;;4983239;28;46405;-65
2023/12/17 04:56:25;;;;;;;10.20;5.87;;;-0.50;65.70;;;;;;4979677;28;46482;-66
2023/12/17 04:58:51;;;;;;;8.07;5.30;;;-0.50;65.60;;;;;;4980602;28;46545;-67
2023/12/17 05:01:17;;;;;;;7.30;4.87;;;-0.40;65.50;;;;;;4983197;28;46393;-68
2023/12/17 05:03:42;;;;;;;8.13;5.20;;;-0.40;65.40;;;;;;4983055;28;46457;-66
2023/12/17 05:06:09;;;;;;;9.23;5.20;;;-0.40;65.30;;;;;;4980571;28;46547;-67
2023/12/17 05:08:34;;;;;;;8.98;4.57;;;-0.30;65.40;;;;;;4981651;28;46470;-66
2023/12/17 05:11:00;;;;;;;6.40;4.57;;;-0.30;65.50;;;;;;4980516;28;46349;-68
2023/12/17 05:13:25;;;;;;;8.97;5.40;;;-0.40;66.60;;;;;;4979322;28;46460;-67
2023/12/17 05:15:52;;;;;;;6.80;4.57;;;-0.40;65.30;;;;;;4982623;28;46814;-67
2023/12/17 05:18:17;;;;;;;7.80;5.35;;;-0.40;65.50;;;;;;4981301;28;46467;-67
2023/12/17 05:20:45;;;;;;;8.97;5.30;;;-0.40;65.30;;;;;;4981592;28;47073;-68
2023/12/17 05:23:12;;;;;;;6.68;4.43;;;-0.40;65.20;;;;;;4981124;28;46028;-67
2023/12/17 05:25:38;;;;;;;7.82;4.85;;;-0.30;65.40;;;;;;4982058;28;46520;-66
2023/12/17 05:28:04;;;;;;;7.45;4.60;;;-0.40;65.20;;;;;;4982835;28;46492;-67
2023/12/17 05:30:30;;;;;;;9.00;4.80;;;-0.40;65.20;;;;;;4981155;28;46588;-67
2023/12/17 05:32:56;;;;;;;7.50;5.20;;;-0.40;65.30;;;;;;4980306;28;46444;-68
2023/12/17 05:35:21;;;;;;;8.00;4.70;;;-0.40;65.30;;;;;;4978903;28;46425;-67
2023/12/17 05:37:47;;;;;;;6.30;4.43;;;-0.40;65.40;;;;;;4978403;28;46481;-67
2023/12/17 05:40:12;;;;;;;9.43;4.83;;;-0.50;65.40;;;;;;4981039;28;47136;-68
2023/12/17 05:42:38;;;;;;;6.90;4.90;;;-0.50;65.40;;;;;;4981324;28;46503;-68
2023/12/17 05:45:04;;;;;;;7.10;4.77;;;-0.50;65.50;;;;;;4982163;28;46471;-66
2023/12/17 05:47:30;;;;;;;12.77;5.18;;;-0.50;65.50;;;;;;4982002;28;46477;-66
2023/12/17 05:49:56;;;;;;;7.25;4.32;;;-0.50;65.50;;;;;;4980923;28;46479;-68
2023/12/17 05:52:22;;;;;;;7.40;4.70;;;-0.50;65.60;;;;;;4980338;28;46446;-67
2023/12/17 05:54:47;;;;;;;10.67;5.03;;;-0.50;65.50;;;;;;4980527;28;46484;-68
2023/12/17 05:57:13;;;;;;;8.00;5.00;;;-0.50;65.40;;;;;;4979403;28;46518;-67
2023/12/17 05:59:39;;;;;;;7.60;4.73;;;-0.50;65.40;;;;;;4981858;28;46993;-67
2023/12/17 06:02:05;;;;;;;8.03;5.03;;;-0.50;65.40;;;;;;4977864;28;46465;-68
2023/12/17 06:04:31;;;;;;;11.05;6.25;;;-0.60;65.40;;;;;;4980618;28;46418;-68
2023/12/17 06:06:56;;;;;;;12.37;6.33;;;-0.50;65.70;;;;;;4979421;28;46401;-68
2023/12/17 06:09:25;;;;;;;9.80;6.77;;;-0.50;65.50;;;;;;4978964;28;47083;-68
2023/12/17 06:11:50;;;;;;;11.40;6.30;;;-0.50;65.50;;;;;;4979031;28;46839;-68
2023/12/17 06:14:20;;;;;;;9.70;5.43;;;-0.50;65.40;;;;;;4979729;28;46429;-68
2023/12/17 06:16:45;;;;;;;8.70;5.10;;;-0.50;65.40;;;;;;4979007;28;46608;-68
2023/12/17 06:19:11;;;;;;;9.00;5.30;;;-0.50;65.30;;;;;;4980136;28;46357;-66
2023/12/17 06:21:37;;;;;;;7.80;4.70;;;-0.50;65.40;;;;;;4978220;28;46408;-67
2023/12/17 06:24:03;;;;;;;8.38;5.18;;;-0.50;65.20;;;;;;4979191;28;46430;-68
2023/12/17 06:26:29;;;;;;;8.27;5.40;;;-0.50;65.20;;;;;;4981819;28;46310;-67
2023/12/17 06:28:55;;;;;;;9.97;5.00;;;-0.40;65.20;;;;;;4980706;28;46663;-68
2023/12/17 06:31:21;;;;;;;8.00;4.87;;;-0.50;65.30;;;;;;4980710;28;46403;-68
2023/12/17 06:33:47;;;;;;;9.98;4.57;;;-0.50;65.30;;;;;;4976406;28;46556;-69
2023/12/17 06:36:12;;;;;;;10.63;5.57;;;-0.50;65.40;;;;;;4976903;28;46567;-67
2023/12/17 06:38:40;;;;;;;10.10;5.50;;;-0.50;65.50;;;;;;4978229;28;47252;-69
2023/12/17 06:41:08;;;;;;;9.73;5.85;;;-0.50;65.40;;;;;;4980834;28;46695;-68
2023/12/17 06:43:33;;;;;;;8.40;5.30;;;-0.40;65.50;;;;;;4978352;28;46373;-67
2023/12/17 06:45:59;;;;;;;7.03;4.90;;;-0.40;65.30;;;;;;4980820;28;46345;-68
2023/12/17 06:48:24;;;;;;;6.70;4.83;;;-0.40;65.20;;;;;;4977886;28;46370;-68
2023/12/17 06:50:50;;;;;;;8.27;4.77;;;-0.40;65.20;;;;;;4980559;28;46528;-68
2023/12/17 06:53:17;;;;;;;9.73;5.30;;;-0.40;65.20;;;;;;4980876;28;46430;-68
2023/12/17 06:55:45;;;;;;;11.18;5.15;;;-0.40;65.20;;;;;;4978525;28;46636;-68
2023/12/17 06:58:11;;;;;;;13.15;5.82;;;-0.40;65.30;;;;;;4978976;28;46612;-67
2023/12/17 07:00:37;;;;;;;10.87;6.37;;;-0.50;65.20;;;;;;4978143;28;46404;-68
2023/12/17 07:03:03;;;;;;;9.73;6.10;;;-0.40;65.30;;;;;;4980409;28;46462;-68
2023/12/17 07:05:28;;;;;;;9.48;5.35;;;-0.40;65.50;;;;;;4979829;28;46587;-67
2023/12/17 07:07:54;;;;;;;11.90;6.30;;;-0.50;65.40;;;;;;4978963;28;46766;-67
2023/12/17 07:10:20;;;;;;;8.33;5.40;;;-0.50;65.50;;;;;;4980410;28;46183;-68
2023/12/17 07:12:49;;;;;;;7.80;5.05;;;-0.40;65.50;;;;;;4979319;28;46465;-66
2023/12/17 07:15:15;;;;;;;10.18;5.72;;;-0.40;65.30;;;;;;4979071;28;46552;-67
2023/12/17 07:17:41;;;;;;;9.03;5.23;;;-0.40;65.30;;;;;;4978875;28;47160;-68
2023/12/17 07:20:10;;;;;;;10.77;5.53;;;-0.30;65.40;;;;;;4982778;28;46421;-66
2023/12/17 07:22:36;;;;;;;12.00;4.95;;;-0.40;65.30;;;;;;4981500;28;46366;-66
2023/12/17 07:25:02;;;;;;;9.07;4.68;;;-0.30;65.30;;;;;;4981920;28;46456;-67
2023/12/17 07:27:28;;;;;;;9.63;5.45;;;-0.30;65.10;;;;;;4977963;28;47397;-66
2023/12/17 07:29:54;;;;;;;10.48;5.55;;;-0.10;65.20;;;;;;4981301;28;46585;-67
2023/12/17 07:32:20;;;;;;;9.07;5.60;;;-0.20;65.00;;;;;;4978444;28;46647;-67
2023/12/17 07:34:45;;;;;;;8.80;5.80;;;-0.20;64.90;;;;;;4980635;28;46432;-67
2023/12/17 07:37:11;;;;;;;10.97;6.47;;;-0.10;66.40;;;;;;4978336;28;47080;-66
2023/12/17 07:39:37;;;;;;;9.63;5.90;;;-0.10;65.00;;;;;;4980246;28;46345;-67
2023/12/17 07:42:03;;;;;;;10.70;6.30;;;-0.10;64.90;;;;;;4976917;28;45952;-68
2023/12/17 07:44:30;;;;;;;9.53;5.80;;;0.00;64.90;;;;;;4980080;28;46608;-68
2023/12/17 07:46:56;;;;;;;12.82;5.97;;;0.00;64.80;;;;;;4977916;28;48135;-68
2023/12/17 07:49:22;;;;;;;8.77;5.78;;;0.00;64.80;;;;;;4976022;28;46970;-68
2023/12/17 07:51:49;;;;;;;10.27;6.10;;;0.10;64.90;;;;;;4978773;28;46436;-67
2023/12/17 07:54:15;;;;;;;9.75;6.70;;;0.10;64.70;;;;;;4978032;28;46521;-68
2023/12/17 07:56:40;;;;;;;9.80;6.50;;;0.20;64.70;;;;;;4978076;28;47161;-68
2023/12/17 07:59:06;;;;;;;9.37;5.87;;;0.20;64.70;;;;;;4977549;28;46478;-67
2023/12/17 08:01:32;;;;;;;8.73;5.77;;;0.30;64.70;;;;;;4977665;28;46273;-67
2023/12/17 08:03:58;;;;;;;14.63;8.15;;;0.30;64.60;;;;;;4976860;28;46764;-67
2023/12/17 08:06:24;;;;;;;9.07;5.33;;;0.40;64.50;;;;;;4978355;28;46997;-68
2023/12/17 08:08:59;;;;;;;7.93;5.35;;;0.50;65.70;;;;;;4981180;28;46690;-67
2023/12/17 08:11:25;;;;;;;9.32;5.53;;;0.50;64.50;;;;;;4978355;28;46422;-66
2023/12/17 08:13:50;;;;;;;8.50;5.53;;;0.60;64.50;;;;;;4977390;28;46695;-66
2023/12/17 08:16:16;;;;;;;9.40;5.53;;;0.60;64.40;;;;;;4978541;28;46443;-66
2023/12/17 08:18:42;;;;;;;9.93;5.20;;;0.70;64.20;;;;;;4977217;28;46814;-67
2023/12/17 08:21:07;;;;;;;10.90;6.57;;;0.80;64.00;;;;;;4980791;28;46456;-67
2023/12/17 08:23:33;;;;;;;9.27;5.23;;;0.90;64.00;;;;;;4983085;28;46816;-66
2023/12/17 08:25:59;;;;;;;7.25;4.85;;;1.00;63.70;;;;;;4980977;28;47097;-68
2023/12/17 08:28:25;;;;;;;11.10;5.90;;;1.20;63.80;;;;;;4981401;28;45955;-68
2023/12/17 08:30:51;;;;;;;9.20;5.15;;;1.10;63.50;;;;;;4977307;28;46456;-68
2023/12/17 08:33:17;;;;;;;11.77;5.57;;;1.20;63.50;;;;;;4982069;28;46830;-68
2023/12/17 08:35:44;;;;;;;7.80;4.97;;;1.30;63.50;;;;;;4982349;28;46622;-68
2023/12/17 08:38:11;;;;;;;7.80;5.22;;;1.40;63.30;;;;;;4980475;28;46483;-68
2023/12/17 08:40:38;;;;;;;7.93;4.60;;;1.60;63.20;;;;;;4980602;28;46445;-69
2023/12/17 08:43:07;;;;;;;8.50;4.95;;;1.60;63.00;;;;;;4985060;28;46488;-68
2023/12/17 08:45:34;;;;;;;6.95;4.20;;;1.80;63.00;;;;;;4979728;28;46460;-68
2023/12/17 08:48:00;;;;;;;8.30;4.30;;;1.80;62.90;;;;;;4982764;28;46578;-68
2023/12/17 08:50:26;;;;;;;6.60;4.35;;;2.00;62.70;;;;;;4981170;28;46497;-68
2023/12/17 08:52:52;;;;;;;9.70;4.00;;;2.10;62.60;;;;;;4982671;28;46225;-67
2023/12/17 08:55:19;;;;;;;8.57;4.53;;;2.10;62.60;;;;;;4982654;28;46568;-66
2023/12/17 08:57:45;;;;;;;6.55;4.25;;;2.30;62.50;;;;;;4979312;28;46434;-68
2023/12/17 09:00:12;;;;;;;8.48;5.30;;;2.30;62.30;;;;;;4979314;28;46478;-68
2023/12/17 09:02:37;;;;;;;10.65;5.47;;;2.40;62.30;;;;;;4981184;28;45896;-67
2023/12/17 09:05:03;;;;;;;8.87;6.20;;;2.50;62.40;;;;;;4979519;28;46349;-69
2023/12/17 09:07:29;;;;;;;8.60;5.30;;;2.50;62.50;;;;;;4978479;28;46414;-66
2023/12/17 09:09:54;;;;;;;9.13;5.60;;;2.60;62.50;;;;;;4978408;28;46421;-69
2023/12/17 09:12:20;;;;;;;8.00;4.50;;;2.70;62.50;;;;;;4980415;28;46471;-68
2023/12/17 09:14:46;;;;;;;7.27;5.20;;;2.80;62.70;;;;;;4980273;28;47192;-67
2023/12/17 09:17:12;;;;;;;9.00;5.57;;;2.90;62.50;;;;;;4976423;28;46451;-67
2023/12/17 09:19:38;;;;;;;10.20;5.90;;;3.00;62.40;;;;;;4981811;28;46703;-67
2023/12/17 09:22:03;;;;;;;8.37;5.90;;;3.10;62.30;;;;;;4983218;28;46631;-68
2023/12/17 09:24:29;;;;;;;10.13;5.80;;;3.30;62.10;;;;;;4981863;28;46307;-68
2023/12/17 09:26:55;;;;;;;10.10;4.97;;;3.40;61.90;;;;;;4984457;28;46481;-69
2023/12/17 09:29:20;;;;;;;6.87;4.20;;;3.40;62.00;;;;;;4976642;28;46506;-69
2023/12/17 09:31:46;;;;;;;9.53;5.37;;;3.50;61.80;;;;;;4981672;28;46352;-68
2023/12/17 09:34:14;;;;;;;8.60;4.80;;;3.60;61.60;;;;;;4978406;28;47366;-68
2023/12/17 09:36:40;;;;;;;15.40;8.00;;;3.70;61.50;;;;;;4981111;28;46504;-68
2023/12/17 09:39:06;;;;;;;18.88;10.30;;;3.80;61.30;;;;;;4978917;28;46511;-68
2023/12/17 09:41:32;;;;;;;16.10;8.77;;;3.90;61.20;;;;;;4980079;28;46478;-69
2023/12/17 09:43:59;;;;;;;9.03;4.90;;;4.00;61.00;;;;;;4980785;28;46487;-68
2023/12/17 09:46:25;;;;;;;6.85;3.97;;;4.10;60.70;;;;;;4981888;28;46424;-68
2023/12/17 09:48:51;;;;;;;9.57;5.15;;;4.10;60.70;;;;;;4982154;28;46445;-69
2023/12/17 09:51:18;;;;;;;9.93;5.43;;;4.20;60.50;;;;;;4971026;28;46592;-67
2023/12/17 09:53:44;;;;;;;7.97;4.50;;;4.20;60.50;;;;;;4976240;28;46419;-68
2023/12/17 09:56:11;;;;;;;6.13;3.60;;;4.10;60.90;;;;;;4977956;28;46757;-71
2023/12/17 09:58:37;;;;;;;4.90;3.25;;;4.10;61.00;;;;;;4978015;28;46590;-72
2023/12/17 10:01:03;;;;;;;5.63;3.60;;;4.20;60.80;;;;;;4978948;28;46742;-71
2023/12/17 10:03:29;;;;;;;6.40;3.87;;;4.30;60.60;;;;;;4977458;28;47298;-71
2023/12/17 10:05:55;;;;;;;5.87;3.27;;;4.30;60.50;;;;;;4980063;28;46751;-70
2023/12/17 10:08:20;;;;;;;7.60;3.83;;;4.30;60.50;;;;;;4979055;28;46348;-72
2023/12/17 10:10:46;;;;;;;4.90;3.27;;;4.40;60.60;;;;;;4978611;28;46412;-69
2023/12/17 10:13:22;;;;;;;4.13;2.50;;;4.40;60.60;;;;;;4978689;28;46564;-72
2023/12/17 10:15:49;;;;;;;4.67;2.77;;;4.50;61.50;;;;;;4977469;28;46683;-71
2023/12/17 10:18:16;;;;;;;3.67;2.40;;;4.60;60.10;;;;;;4979115;28;46439;-72
2023/12/17 10:20:43;;;;;;;4.87;2.80;;;4.60;60.00;;;;;;4978671;28;46528;-71
2023/12/17 10:23:09;;;;;;;4.57;2.90;;;4.70;59.90;;;;;;4976468;28;46439;-72
2023/12/17 10:25:34;;;;;;;5.47;2.73;;;4.70;59.80;;;;;;4977420;28;46843;-72
2023/12/17 10:28:00;;;;;;;5.63;3.00;;;4.80;59.60;;;;;;4978259;28;46830;-71
2023/12/17 10:30:31;;;;;;;4.03;2.20;;;4.80;59.10;;;;;;4979154;28;46437;-72
2023/12/17 10:32:59;;;;;;;4.47;3.00;;;4.90;58.90;;;;;;4977942;28;46446;-72
2023/12/17 10:35:25;;;;;;;6.10;3.57;;;4.90;59.00;;;;;;4983251;28;46321;-71
2023/12/17 10:38:00;;;;;;;5.57;3.23;;;5.00;58.90;;;;;;4984048;28;46502;-71
2023/12/17 10:40:27;;;;;;;6.83;3.10;;;5.10;58.50;;;;;;4982553;28;46536;-72
2023/12/17 10:42:55;;;;;;;8.33;4.70;;;5.10;58.40;;;;;;4979153;28;46500;-71
2023/12/17 10:45:21;;;;;;;7.57;3.90;;;5.00;58.60;;;;;;4978475;28;45971;-72
2023/12/17 10:47:57;;;;;;;4.57;3.37;;;5.10;58.80;;;;;;4980271;28;45930;-72
2023/12/17 10:50:24;;;;;;;4.80;3.00;;;5.20;58.50;;;;;;4979154;28;46590;-71
2023/12/17 10:52:50;;;;;;;4.47;2.60;;;5.30;58.20;;;;;;4978007;28;47252;-72
2023/12/17 10:55:17;;;;;;;4.20;2.90;;;5.40;57.70;;;;;;4979428;28;46826;-71
2023/12/17 10:58:07;;;;;;;3.93;2.50;;;5.50;57.50;;;;;;4979653;28;46479;-72
2023/12/17 11:00:35;;;;;;;4.50;2.37;;;5.80;57.10;;;;;;4979836;28;46501;-72
2023/12/17 11:03:05;;;;;;;3.27;2.10;;;6.10;56.90;;;;;;4976488;28;46521;-72
2023/12/17 11:05:30;;;;;;;3.40;2.20;;;6.30;56.50;;;;;;4979770;28;46370;-72
2023/12/17 11:07:56;;;;;;;3.53;2.17;;;6.30;56.50;;;;;;4978868;28;46460;-72
2023/12/17 11:10:23;;;;;;;4.70;2.40;;;6.50;56.30;;;;;;4976328;28;46512;-71
2023/12/17 11:12:49;;;;;;;5.10;2.30;;;6.60;56.10;;;;;;4978829;28;46818;-71
2023/12/17 11:15:20;;;;;;;6.10;3.50;;;6.70;56.10;;;;;;4976929;28;46757;-71
2023/12/17 11:17:46;;;;;;;8.60;5.00;;;6.80;56.00;;;;;;4976921;28;46397;-70
2023/12/17 11:20:11;;;;;;;5.73;3.70;;;6.90;55.70;;;;;;4977417;28;45965;-71
2023/12/17 11:22:38;;;;;;;6.20;3.33;;;7.00;55.70;;;;;;4978335;28;46478;-71
2023/12/17 11:25:08;;;;;;;6.73;2.60;;;7.00;55.40;;;;;;4979326;28;46431;-71
2023/12/17 11:27:34;;;;;;;4.60;2.47;;;6.90;55.10;;;;;;4977754;28;46416;-71
2023/12/17 11:30:00;;;;;;;3.77;2.23;;;6.80;55.00;;;;;;4979321;28;46430;-71
2023/12/17 11:32:29;;;;;;;5.70;2.37;;;6.70;55.10;;;;;;4980541;28;45876;-72
2023/12/17 11:34:57;;;;;;;3.53;2.03;;;6.70;55.00;;;;;;4980125;28;46269;-71
2023/12/17 11:37:24;;;;;;;3.50;2.30;;;6.70;54.80;;;;;;4977589;28;46476;-72
2023/12/17 11:39:51;;;;;;;5.10;2.40;;;6.60;54.70;;;;;;4980271;28;46396;-72
2023/12/17 11:42:18;;;;;;;3.70;2.17;;;6.70;54.30;;;;;;4977189;28;47403;-72
2023/12/17 11:44:49;;;;;;;4.33;2.40;;;6.70;54.10;;;;;;4977950;28;46412;-71
2023/12/17 11:47:15;;;;;;;4.70;2.40;;;6.80;53.50;;;;;;4979868;28;46481;-71
2023/12/17 11:49:42;;;;;;;5.47;2.60;;;6.80;53.30;;;;;;4980630;28;46023;-72
2023/12/17 11:52:16;;;;;;;5.60;2.90;;;6.90;53.20;;;;;;4981834;28;46522;-72
2023/12/17 11:54:45;;;;;;;4.17;2.80;;;6.90;52.60;;;;;;4982212;28;46463;-73
2023/12/17 11:57:19;;;;;;;3.83;2.83;;;6.90;52.40;;;;;;4980897;28;46607;-72
2023/12/17 11:59:45;;;;;;;5.33;2.93;;;6.90;52.10;;;;;;4973084;28;46617;-72
2023/12/17 12:02:13;;;;;;;3.40;2.10;;;6.90;51.90;;;;;;4982821;28;47217;-71
2023/12/17 12:04:40;;;;;;;4.73;3.27;;;7.00;52.80;;;;;;4981367;28;46368;-71
2023/12/17 12:07:06;;;;;;;7.63;5.33;;;7.00;51.10;;;;;;4979719;28;45952;-72
2023/12/17 12:09:32;;;;;;;6.73;3.50;;;7.00;51.10;;;;;;4980536;28;46456;-71
2023/12/17 12:11:58;;;;;;;3.13;2.27;;;7.10;50.80;;;;;;4980598;28;45946;-72
2023/12/17 12:14:23;;;;;;;3.90;2.30;;;7.10;50.20;;;;;;4981458;28;46452;-71
2023/12/17 12:16:49;;;;;;;5.70;3.10;;;7.10;50.10;;;;;;4980922;28;46501;-72
2023/12/17 12:19:14;;;;;;;7.90;4.30;;;7.10;50.10;;;;;;4980322;28;46572;-71
2023/12/17 12:21:40;;;;;;;8.77;5.50;;;7.20;50.20;;;;;;4980695;28;46397;-72
2023/12/17 12:24:10;;;;;;;14.53;6.67;;;7.10;50.10;;;;;;4982641;28;46445;-72
2023/12/17 12:26:36;;;;;;;10.00;4.83;;;7.10;50.10;;;;;;4982227;28;46425;-71
2023/12/17 12:29:06;;;;;;;5.10;2.90;;;7.10;51.30;;;;;;4982164;28;46424;-71
2023/12/17 12:31:32;;;;;;;4.03;2.70;;;7.20;49.90;;;;;;4980956;28;47952;-72
2023/12/17 12:34:03;;;;;;;4.70;2.60;;;7.20;49.70;;;;;;4981818;28;45855;-72
2023/12/17 12:36:43;;;;;;;4.37;2.93;;;7.20;49.70;;;;;;4981243;28;46547;-72
2023/12/17 12:39:09;;;;;;;3.70;2.73;;;7.20;49.10;;;;;;4983274;28;46368;-71
2023/12/17 12:41:34;;;;;;;7.40;2.50;;;7.20;49.40;;;;;;4980360;28;47170;-72
2023/12/17 12:44:00;;;;;;;5.20;2.87;;;7.10;49.20;;;;;;4980098;28;46416;-72